Pagina principale
METAR-TAF:

METAR-TAF

Aeroporti :

Aeroporto Internazionale di Nouakchott

Nouakchott, Mauritania

latitudine: 18-18-36N, longitudine: 015-58-11W, altezza: 3 m

Osservazione

Il bollettino è stato emesso 28 minuti fa, alle 00:00 UTC
Vento 9 kt da nord
Temperature 22°C
Umidità 88%
Pressione 1014 hPa
Visibilità: 8000 m

METAR: GQNO 160000Z 35009KT 8000 NSC 22/20 Q1014 NOSIG

Ora: 00:28 (00:28 UTC)

Previsione

Il bollettino è stato emesso 1 ora e 28 minuti fa, alle 23:00 UTC
Previsione valida dal 16 alle 00 UTC al 17 alle 06 UTC
Vento 8 kt da nord/nord-ovest
Visibilità: 7000 m
Probabilità 30% :
Temporaneamente
dal 16 alle 03 UTC al 16 alle 08 UTC
Visibilità: 2500 m
Nuvoloso ad un'altezza di 800 ft
foschia
Evoluzione graduale
dal 16 alle 08 UTC al 16 alle 10 UTC
Vento 12 kt da nord

TAF: GQNO 152300Z 1600/1706 33008KT 7000 NSC PROB30 TEMPO 1603/1608 2500 BR BKN008 BECMG 1608/1610 35012KT

Osservazioni e previsioni meteorologiche di più di 4000 aeroporti (messaggi METAR e TAF).

Le stazioni disponibili sono rappresentate dai dischi gialli e rossi sulla carta.

Puntare il mouse per vedere il nome della stazione.

Clicca sopra per visualizzare le osservazioni e previsioni meteorologiche.

Per cambiare la mappa : fare clic sui pulsanti verdi con una croce nera per ingrandire, il pulsante verde con un trattino per diminuire, o sulla freccia verde per le mappe adiacenti.


METAR-TAF: